sensor_id;sensor_type;location;lat;lon;timestamp;P1;durP1;ratioP1;P2;durP2;ratioP2
7203;SDS011;3643;52.460;13.322;2024-03-08T00:00:14;29.23;;;16.87;;
7203;SDS011;3643;52.460;13.322;2024-03-08T00:02:45;33.50;;;17.07;;
7203;SDS011;3643;52.460;13.322;2024-03-08T00:05:14;28.87;;;16.00;;
7203;SDS011;3643;52.460;13.322;2024-03-08T00:07:44;30.70;;;15.47;;
7203;SDS011;3643;52.460;13.322;2024-03-08T00:10:12;29.07;;;16.03;;
7203;SDS011;3643;52.460;13.322;2024-03-08T00:12:42;28.53;;;16.60;;
7203;SDS011;3643;52.460;13.322;2024-03-08T00:15:12;28.20;;;15.03;;
7203;SDS011;3643;52.460;13.322;2024-03-08T00:17:44;27.60;;;15.87;;
7203;SDS011;3643;52.460;13.322;2024-03-08T00:20:14;30.33;;;16.63;;
7203;SDS011;3643;52.460;13.322;2024-03-08T00:22:45;28.57;;;15.70;;
7203;SDS011;3643;52.460;13.322;2024-03-08T00:25:13;28.40;;;16.47;;
7203;SDS011;3643;52.460;13.322;2024-03-08T00:27:42;34.63;;;16.53;;
7203;SDS011;3643;52.460;13.322;2024-03-08T00:30:11;30.67;;;15.67;;
7203;SDS011;3643;52.460;13.322;2024-03-08T00:32:42;30.30;;;16.53;;
7203;SDS011;3643;52.460;13.322;2024-03-08T00:35:10;30.70;;;17.33;;
7203;SDS011;3643;52.460;13.322;2024-03-08T00:37:39;33.63;;;16.67;;
7203;SDS011;3643;52.460;13.322;2024-03-08T00:40:08;28.83;;;15.87;;
7203;SDS011;3643;52.460;13.322;2024-03-08T00:42:37;31.37;;;16.97;;
7203;SDS011;3643;52.460;13.322;2024-03-08T00:45:06;34.17;;;16.97;;
7203;SDS011;3643;52.460;13.322;2024-03-08T00:47:36;31.00;;;16.13;;
7203;SDS011;3643;52.460;13.322;2024-03-08T00:50:07;29.90;;;16.60;;
7203;SDS011;3643;52.460;13.322;2024-03-08T00:52:35;29.17;;;15.20;;
7203;SDS011;3643;52.460;13.322;2024-03-08T00:55:04;33.67;;;17.23;;
7203;SDS011;3643;52.460;13.322;2024-03-08T00:57:32;27.97;;;15.47;;
7203;SDS011;3643;52.460;13.322;2024-03-08T01:00:02;28.60;;;15.97;;
7203;SDS011;3643;52.460;13.322;2024-03-08T01:02:36;27.07;;;14.80;;
7203;SDS011;3643;52.460;13.322;2024-03-08T01:05:04;30.33;;;15.20;;
7203;SDS011;3643;52.460;13.322;2024-03-08T01:07:35;28.73;;;16.63;;
7203;SDS011;3643;52.460;13.322;2024-03-08T01:10:03;29.53;;;15.60;;
7203;SDS011;3643;52.460;13.322;2024-03-08T01:12:35;34.97;;;16.13;;
7203;SDS011;3643;52.460;13.322;2024-03-08T01:15:04;28.97;;;15.97;;
7203;SDS011;3643;52.460;13.322;2024-03-08T01:17:33;28.67;;;15.10;;
7203;SDS011;3643;52.460;13.322;2024-03-08T01:20:01;29.17;;;15.67;;
7203;SDS011;3643;52.460;13.322;2024-03-08T01:22:29;30.27;;;15.20;;
7203;SDS011;3643;52.460;13.322;2024-03-08T01:24:59;34.10;;;16.30;;
7203;SDS011;3643;52.460;13.322;2024-03-08T01:27:27;31.67;;;15.77;;
7203;SDS011;3643;52.460;13.322;2024-03-08T01:29:55;29.80;;;15.70;;
7203;SDS011;3643;52.460;13.322;2024-03-08T01:32:23;32.10;;;16.67;;
7203;SDS011;3643;52.460;13.322;2024-03-08T01:34:51;29.10;;;15.40;;
7203;SDS011;3643;52.460;13.322;2024-03-08T01:37:19;31.53;;;15.73;;
7203;SDS011;3643;52.460;13.322;2024-03-08T01:39:47;29.40;;;16.50;;
7203;SDS011;3643;52.460;13.322;2024-03-08T01:42:16;30.60;;;16.00;;
7203;SDS011;3643;52.460;13.322;2024-03-08T01:44:44;26.03;;;15.33;;
7203;SDS011;3643;52.460;13.322;2024-03-08T01:47:12;29.77;;;15.77;;
7203;SDS011;3643;52.460;13.322;2024-03-08T01:49:41;28.37;;;15.53;;
7203;SDS011;3643;52.460;13.322;2024-03-08T01:52:09;29.10;;;16.40;;
7203;SDS011;3643;52.460;13.322;2024-03-08T01:54:37;30.43;;;16.23;;
7203;SDS011;3643;52.460;13.322;2024-03-08T01:57:07;29.07;;;15.57;;
7203;SDS011;3643;52.460;13.322;2024-03-08T01:59:37;27.30;;;14.60;;
7203;SDS011;3643;52.460;13.322;2024-03-08T02:02:05;30.87;;;16.00;;
7203;SDS011;3643;52.460;13.322;2024-03-08T02:04:35;33.63;;;16.40;;
7203;SDS011;3643;52.460;13.322;2024-03-08T02:07:05;28.87;;;16.07;;
7203;SDS011;3643;52.460;13.322;2024-03-08T02:09:36;27.70;;;14.83;;
7203;SDS011;3643;52.460;13.322;2024-03-08T02:12:05;31.57;;;16.87;;
7203;SDS011;3643;52.460;13.322;2024-03-08T02:14:36;29.17;;;15.43;;
7203;SDS011;3643;52.460;13.322;2024-03-08T02:17:06;33.67;;;17.27;;
7203;SDS011;3643;52.460;13.322;2024-03-08T02:19:34;32.47;;;16.07;;
7203;SDS011;3643;52.460;13.322;2024-03-08T02:22:04;29.97;;;15.37;;
7203;SDS011;3643;52.460;13.322;2024-03-08T02:24:33;33.63;;;16.57;;
7203;SDS011;3643;52.460;13.322;2024-03-08T02:27:01;30.30;;;16.43;;
7203;SDS011;3643;52.460;13.322;2024-03-08T02:29:30;33.57;;;16.53;;
7203;SDS011;3643;52.460;13.322;2024-03-08T02:32:01;30.90;;;16.00;;
7203;SDS011;3643;52.460;13.322;2024-03-08T02:34:29;35.30;;;16.37;;
7203;SDS011;3643;52.460;13.322;2024-03-08T02:36:57;35.13;;;16.37;;
7203;SDS011;3643;52.460;13.322;2024-03-08T02:39:27;27.07;;;15.97;;
7203;SDS011;3643;52.460;13.322;2024-03-08T02:41:55;29.87;;;16.10;;
7203;SDS011;3643;52.460;13.322;2024-03-08T02:44:23;30.47;;;16.07;;
7203;SDS011;3643;52.460;13.322;2024-03-08T02:46:51;32.50;;;16.30;;
7203;SDS011;3643;52.460;13.322;2024-03-08T02:49:21;30.83;;;16.23;;
7203;SDS011;3643;52.460;13.322;2024-03-08T02:51:49;31.53;;;16.33;;
7203;SDS011;3643;52.460;13.322;2024-03-08T02:54:17;28.90;;;15.77;;
7203;SDS011;3643;52.460;13.322;2024-03-08T02:56:47;31.60;;;16.40;;
7203;SDS011;3643;52.460;13.322;2024-03-08T02:59:17;32.13;;;17.17;;
7203;SDS011;3643;52.460;13.322;2024-03-08T03:01:45;31.63;;;16.93;;
7203;SDS011;3643;52.460;13.322;2024-03-08T03:04:13;34.40;;;16.50;;
7203;SDS011;3643;52.460;13.322;2024-03-08T03:06:41;30.50;;;16.07;;
7203;SDS011;3643;52.460;13.322;2024-03-08T03:09:09;33.27;;;16.47;;
7203;SDS011;3643;52.460;13.322;2024-03-08T03:11:37;32.93;;;15.27;;
7203;SDS011;3643;52.460;13.322;2024-03-08T03:14:07;33.43;;;16.53;;
7203;SDS011;3643;52.460;13.322;2024-03-08T03:16:35;32.50;;;16.20;;
7203;SDS011;3643;52.460;13.322;2024-03-08T03:19:03;33.03;;;16.37;;
7203;SDS011;3643;52.460;13.322;2024-03-08T03:21:32;31.30;;;16.90;;
7203;SDS011;3643;52.460;13.322;2024-03-08T03:24:02;34.07;;;16.50;;
7203;SDS011;3643;52.460;13.322;2024-03-08T03:26:30;28.70;;;16.20;;
7203;SDS011;3643;52.460;13.322;2024-03-08T03:28:58;33.87;;;17.60;;
7203;SDS011;3643;52.460;13.322;2024-03-08T03:31:30;35.97;;;17.60;;
7203;SDS011;3643;52.460;13.322;2024-03-08T03:33:58;31.37;;;16.80;;
7203;SDS011;3643;52.460;13.322;2024-03-08T03:36:28;31.53;;;17.63;;
7203;SDS011;3643;52.460;13.322;2024-03-08T03:38:57;32.60;;;17.57;;
7203;SDS011;3643;52.460;13.322;2024-03-08T03:41:36;32.03;;;16.03;;
7203;SDS011;3643;52.460;13.322;2024-03-08T03:44:04;32.93;;;16.83;;
7203;SDS011;3643;52.460;13.322;2024-03-08T03:46:34;33.33;;;17.40;;
7203;SDS011;3643;52.460;13.322;2024-03-08T03:49:03;41.37;;;18.27;;
7203;SDS011;3643;52.460;13.322;2024-03-08T03:51:30;32.97;;;17.70;;
7203;SDS011;3643;52.460;13.322;2024-03-08T03:53:58;35.00;;;17.77;;
7203;SDS011;3643;52.460;13.322;2024-03-08T03:56:27;34.73;;;17.83;;
7203;SDS011;3643;52.460;13.322;2024-03-08T03:58:54;37.37;;;18.57;;
7203;SDS011;3643;52.460;13.322;2024-03-08T04:01:22;39.73;;;19.50;;
7203;SDS011;3643;52.460;13.322;2024-03-08T04:03:52;34.97;;;17.37;;
7203;SDS011;3643;52.460;13.322;2024-03-08T04:06:20;34.93;;;17.73;;
7203;SDS011;3643;52.460;13.322;2024-03-08T04:08:48;35.77;;;17.83;;
7203;SDS011;3643;52.460;13.322;2024-03-08T04:11:17;38.83;;;18.63;;
7203;SDS011;3643;52.460;13.322;2024-03-08T04:13:45;36.33;;;17.83;;
7203;SDS011;3643;52.460;13.322;2024-03-08T04:16:13;35.73;;;18.33;;
7203;SDS011;3643;52.460;13.322;2024-03-08T04:18:41;33.87;;;18.13;;
7203;SDS011;3643;52.460;13.322;2024-03-08T04:21:11;37.47;;;18.93;;
7203;SDS011;3643;52.460;13.322;2024-03-08T04:23:39;35.73;;;18.63;;
7203;SDS011;3643;52.460;13.322;2024-03-08T04:26:07;38.67;;;19.03;;
7203;SDS011;3643;52.460;13.322;2024-03-08T04:28:35;38.93;;;18.60;;
7203;SDS011;3643;52.460;13.322;2024-03-08T04:31:06;32.83;;;17.93;;
7203;SDS011;3643;52.460;13.322;2024-03-08T04:33:34;39.87;;;18.87;;
7203;SDS011;3643;52.460;13.322;2024-03-08T04:36:02;36.40;;;19.60;;
7203;SDS011;3643;52.460;13.322;2024-03-08T04:38:32;37.83;;;19.40;;
7203;SDS011;3643;52.460;13.322;2024-03-08T04:41:00;38.07;;;18.30;;
7203;SDS011;3643;52.460;13.322;2024-03-08T04:43:29;36.97;;;18.77;;
7203;SDS011;3643;52.460;13.322;2024-03-08T04:45:57;37.50;;;18.97;;
7203;SDS011;3643;52.460;13.322;2024-03-08T04:48:25;40.77;;;19.87;;
7203;SDS011;3643;52.460;13.322;2024-03-08T04:50:53;39.73;;;19.43;;
7203;SDS011;3643;52.460;13.322;2024-03-08T04:53:22;38.97;;;19.33;;
7203;SDS011;3643;52.460;13.322;2024-03-08T04:55:51;39.93;;;19.50;;
7203;SDS011;3643;52.460;13.322;2024-03-08T04:58:19;39.80;;;19.87;;
7203;SDS011;3643;52.460;13.322;2024-03-08T05:00:47;45.97;;;21.97;;
7203;SDS011;3643;52.460;13.322;2024-03-08T05:03:16;39.93;;;20.73;;
7203;SDS011;3643;52.460;13.322;2024-03-08T05:05:44;40.57;;;20.63;;
7203;SDS011;3643;52.460;13.322;2024-03-08T05:08:12;44.90;;;21.73;;
7203;SDS011;3643;52.460;13.322;2024-03-08T05:10:41;45.90;;;21.00;;
7203;SDS011;3643;52.460;13.322;2024-03-08T05:13:11;42.27;;;20.70;;
7203;SDS011;3643;52.460;13.322;2024-03-08T05:15:39;41.30;;;20.07;;
7203;SDS011;3643;52.460;13.322;2024-03-08T05:18:07;40.73;;;20.67;;
7203;SDS011;3643;52.460;13.322;2024-03-08T05:20:37;37.67;;;19.23;;
7203;SDS011;3643;52.460;13.322;2024-03-08T05:23:05;43.93;;;21.10;;
7203;SDS011;3643;52.460;13.322;2024-03-08T05:25:34;41.43;;;20.63;;
7203;SDS011;3643;52.460;13.322;2024-03-08T05:28:02;42.70;;;19.70;;
7203;SDS011;3643;52.460;13.322;2024-03-08T05:30:32;40.97;;;20.70;;
7203;SDS011;3643;52.460;13.322;2024-03-08T05:33:02;43.40;;;22.57;;
7203;SDS011;3643;52.460;13.322;2024-03-08T05:35:30;42.63;;;20.50;;
7203;SDS011;3643;52.460;13.322;2024-03-08T05:37:58;40.87;;;20.20;;
7203;SDS011;3643;52.460;13.322;2024-03-08T05:40:27;38.53;;;20.77;;
7203;SDS011;3643;52.460;13.322;2024-03-08T05:42:58;46.33;;;21.57;;
7203;SDS011;3643;52.460;13.322;2024-03-08T05:45:26;40.20;;;21.27;;
7203;SDS011;3643;52.460;13.322;2024-03-08T05:47:55;39.07;;;20.83;;
7203;SDS011;3643;52.460;13.322;2024-03-08T05:50:24;45.87;;;22.10;;
7203;SDS011;3643;52.460;13.322;2024-03-08T05:52:53;40.13;;;21.57;;
7203;SDS011;3643;52.460;13.322;2024-03-08T05:55:21;50.10;;;22.43;;
7203;SDS011;3643;52.460;13.322;2024-03-08T05:57:51;37.80;;;20.53;;
7203;SDS011;3643;52.460;13.322;2024-03-08T06:00:20;41.17;;;21.87;;
7203;SDS011;3643;52.460;13.322;2024-03-08T06:02:48;40.67;;;21.57;;
7203;SDS011;3643;52.460;13.322;2024-03-08T06:05:18;43.10;;;21.97;;
7203;SDS011;3643;52.460;13.322;2024-03-08T06:07:46;50.40;;;22.83;;
7203;SDS011;3643;52.460;13.322;2024-03-08T06:10:14;42.03;;;20.80;;
7203;SDS011;3643;52.460;13.322;2024-03-08T06:12:43;48.20;;;22.13;;
7203;SDS011;3643;52.460;13.322;2024-03-08T06:15:11;49.90;;;23.47;;
7203;SDS011;3643;52.460;13.322;2024-03-08T06:17:41;43.50;;;22.33;;
7203;SDS011;3643;52.460;13.322;2024-03-08T06:20:10;46.30;;;23.03;;
7203;SDS011;3643;52.460;13.322;2024-03-08T06:22:40;43.93;;;21.70;;
7203;SDS011;3643;52.460;13.322;2024-03-08T06:25:10;39.40;;;21.70;;
7203;SDS011;3643;52.460;13.322;2024-03-08T06:27:40;44.90;;;21.73;;
7203;SDS011;3643;52.460;13.322;2024-03-08T06:30:09;43.47;;;20.97;;
7203;SDS011;3643;52.460;13.322;2024-03-08T06:32:38;43.73;;;21.07;;
7203;SDS011;3643;52.460;13.322;2024-03-08T06:35:09;39.43;;;20.43;;
7203;SDS011;3643;52.460;13.322;2024-03-08T06:37:37;39.00;;;20.63;;
7203;SDS011;3643;52.460;13.322;2024-03-08T06:40:07;34.93;;;19.80;;
7203;SDS011;3643;52.460;13.322;2024-03-08T06:42:39;34.27;;;18.90;;
7203;SDS011;3643;52.460;13.322;2024-03-08T06:45:08;30.50;;;18.43;;
7203;SDS011;3643;52.460;13.322;2024-03-08T06:47:36;31.53;;;18.23;;
7203;SDS011;3643;52.460;13.322;2024-03-08T06:50:05;33.23;;;19.00;;
7203;SDS011;3643;52.460;13.322;2024-03-08T06:52:34;31.10;;;18.00;;
7203;SDS011;3643;52.460;13.322;2024-03-08T06:55:02;29.93;;;17.70;;
7203;SDS011;3643;52.460;13.322;2024-03-08T06:57:32;33.23;;;18.73;;
7203;SDS011;3643;52.460;13.322;2024-03-08T07:00:00;30.90;;;18.43;;
7203;SDS011;3643;52.460;13.322;2024-03-08T07:02:29;30.13;;;18.77;;
7203;SDS011;3643;52.460;13.322;2024-03-08T07:04:58;30.73;;;18.47;;
7203;SDS011;3643;52.460;13.322;2024-03-08T07:07:27;31.57;;;18.40;;
7203;SDS011;3643;52.460;13.322;2024-03-08T07:09:56;29.27;;;18.40;;
7203;SDS011;3643;52.460;13.322;2024-03-08T07:12:24;29.70;;;17.43;;
7203;SDS011;3643;52.460;13.322;2024-03-08T07:14:54;30.27;;;18.53;;
7203;SDS011;3643;52.460;13.322;2024-03-08T07:17:22;30.40;;;18.23;;
7203;SDS011;3643;52.460;13.322;2024-03-08T07:19:50;29.30;;;17.97;;
7203;SDS011;3643;52.460;13.322;2024-03-08T07:22:20;29.53;;;17.47;;
7203;SDS011;3643;52.460;13.322;2024-03-08T07:24:49;28.70;;;18.60;;
7203;SDS011;3643;52.460;13.322;2024-03-08T07:27:31;25.90;;;17.17;;
7203;SDS011;3643;52.460;13.322;2024-03-08T07:30:01;29.47;;;17.87;;
7203;SDS011;3643;52.460;13.322;2024-03-08T07:32:34;27.53;;;16.87;;
7203;SDS011;3643;52.460;13.322;2024-03-08T07:35:02;28.43;;;18.07;;
7203;SDS011;3643;52.460;13.322;2024-03-08T07:37:31;28.97;;;19.07;;
7203;SDS011;3643;52.460;13.322;2024-03-08T07:39:59;28.67;;;18.20;;
7203;SDS011;3643;52.460;13.322;2024-03-08T07:42:27;30.50;;;17.57;;
7203;SDS011;3643;52.460;13.322;2024-03-08T07:44:56;28.83;;;18.30;;
7203;SDS011;3643;52.460;13.322;2024-03-08T07:47:25;31.13;;;18.67;;
7203;SDS011;3643;52.460;13.322;2024-03-08T07:49:53;33.13;;;19.83;;
7203;SDS011;3643;52.460;13.322;2024-03-08T07:52:21;35.37;;;18.80;;
7203;SDS011;3643;52.460;13.322;2024-03-08T07:54:49;36.37;;;19.43;;
7203;SDS011;3643;52.460;13.322;2024-03-08T07:57:17;41.17;;;20.30;;
7203;SDS011;3643;52.460;13.322;2024-03-08T07:59:46;35.97;;;19.33;;
7203;SDS011;3643;52.460;13.322;2024-03-08T08:02:15;35.73;;;19.43;;
7203;SDS011;3643;52.460;13.322;2024-03-08T08:04:45;36.40;;;19.63;;
7203;SDS011;3643;52.460;13.322;2024-03-08T08:07:13;35.70;;;20.17;;
7203;SDS011;3643;52.460;13.322;2024-03-08T08:09:41;36.40;;;18.93;;
7203;SDS011;3643;52.460;13.322;2024-03-08T08:12:09;37.10;;;19.03;;
7203;SDS011;3643;52.460;13.322;2024-03-08T08:14:38;35.37;;;18.90;;
7203;SDS011;3643;52.460;13.322;2024-03-08T08:17:07;33.10;;;17.53;;
7203;SDS011;3643;52.460;13.322;2024-03-08T08:19:35;33.23;;;19.03;;
7203;SDS011;3643;52.460;13.322;2024-03-08T08:22:06;32.80;;;18.30;;
7203;SDS011;3643;52.460;13.322;2024-03-08T08:24:35;36.90;;;19.07;;
7203;SDS011;3643;52.460;13.322;2024-03-08T08:27:04;34.00;;;19.37;;
7203;SDS011;3643;52.460;13.322;2024-03-08T08:29:33;33.57;;;19.23;;
7203;SDS011;3643;52.460;13.322;2024-03-08T08:32:01;30.00;;;17.80;;
7203;SDS011;3643;52.460;13.322;2024-03-08T08:34:30;33.43;;;19.00;;
7203;SDS011;3643;52.460;13.322;2024-03-08T08:36:58;36.80;;;19.03;;
7203;SDS011;3643;52.460;13.322;2024-03-08T08:39:28;33.17;;;19.20;;
7203;SDS011;3643;52.460;13.322;2024-03-08T08:41:56;37.63;;;18.43;;
7203;SDS011;3643;52.460;13.322;2024-03-08T08:44:24;29.20;;;16.47;;
7203;SDS011;3643;52.460;13.322;2024-03-08T08:46:53;28.07;;;16.27;;
7203;SDS011;3643;52.460;13.322;2024-03-08T08:49:31;28.80;;;16.00;;
7203;SDS011;3643;52.460;13.322;2024-03-08T08:52:00;28.17;;;16.67;;
7203;SDS011;3643;52.460;13.322;2024-03-08T08:54:42;29.97;;;16.47;;
7203;SDS011;3643;52.460;13.322;2024-03-08T08:57:15;34.13;;;16.73;;
7203;SDS011;3643;52.460;13.322;2024-03-08T08:59:43;30.07;;;16.50;;
7203;SDS011;3643;52.460;13.322;2024-03-08T09:02:11;30.17;;;16.53;;
7203;SDS011;3643;52.460;13.322;2024-03-08T09:04:44;27.30;;;15.13;;
7203;SDS011;3643;52.460;13.322;2024-03-08T09:07:12;31.23;;;17.50;;
7203;SDS011;3643;52.460;13.322;2024-03-08T09:09:42;28.93;;;16.77;;
7203;SDS011;3643;52.460;13.322;2024-03-08T09:12:10;29.27;;;17.20;;
7203;SDS011;3643;52.460;13.322;2024-03-08T09:14:39;28.77;;;16.20;;
7203;SDS011;3643;52.460;13.322;2024-03-08T09:17:07;29.63;;;16.80;;
7203;SDS011;3643;52.460;13.322;2024-03-08T09:19:36;28.70;;;17.63;;
7203;SDS011;3643;52.460;13.322;2024-03-08T09:22:04;28.53;;;16.60;;
7203;SDS011;3643;52.460;13.322;2024-03-08T09:24:32;29.23;;;16.60;;
7203;SDS011;3643;52.460;13.322;2024-03-08T09:27:01;29.87;;;16.70;;
7203;SDS011;3643;52.460;13.322;2024-03-08T09:29:29;36.17;;;17.83;;
7203;SDS011;3643;52.460;13.322;2024-03-08T09:31:57;29.83;;;17.07;;
7203;SDS011;3643;52.460;13.322;2024-03-08T09:34:25;28.80;;;16.53;;
7203;SDS011;3643;52.460;13.322;2024-03-08T09:37:03;28.57;;;17.50;;
7203;SDS011;3643;52.460;13.322;2024-03-08T09:39:31;30.53;;;17.27;;
7203;SDS011;3643;52.460;13.322;2024-03-08T09:42:01;34.17;;;17.73;;
7203;SDS011;3643;52.460;13.322;2024-03-08T09:44:30;27.97;;;15.77;;
7203;SDS011;3643;52.460;13.322;2024-03-08T09:46:58;31.80;;;16.07;;
7203;SDS011;3643;52.460;13.322;2024-03-08T09:49:28;29.43;;;16.23;;
7203;SDS011;3643;52.460;13.322;2024-03-08T09:51:56;30.53;;;16.93;;
7203;SDS011;3643;52.460;13.322;2024-03-08T09:54:25;27.87;;;15.53;;
7203;SDS011;3643;52.460;13.322;2024-03-08T09:56:53;24.90;;;15.10;;
7203;SDS011;3643;52.460;13.322;2024-03-08T09:59:23;30.10;;;16.37;;
7203;SDS011;3643;52.460;13.322;2024-03-08T10:02:09;24.43;;;14.97;;
7203;SDS011;3643;52.460;13.322;2024-03-08T10:04:42;25.47;;;14.40;;
7203;SDS011;3643;52.460;13.322;2024-03-08T10:07:12;21.70;;;13.27;;
7203;SDS011;3643;52.460;13.322;2024-03-08T10:09:41;23.17;;;13.27;;
7203;SDS011;3643;52.460;13.322;2024-03-08T10:12:13;34.03;;;17.97;;
7203;SDS011;3643;52.460;13.322;2024-03-08T10:14:45;29.33;;;16.00;;
7203;SDS011;3643;52.460;13.322;2024-03-08T10:17:13;25.73;;;13.67;;
7203;SDS011;3643;52.460;13.322;2024-03-08T10:19:49;27.10;;;15.20;;
7203;SDS011;3643;52.460;13.322;2024-03-08T10:22:18;32.50;;;20.30;;
7203;SDS011;3643;52.460;13.322;2024-03-08T10:24:47;40.07;;;22.63;;
7203;SDS011;3643;52.460;13.322;2024-03-08T10:27:16;25.27;;;15.03;;
7203;SDS011;3643;52.460;13.322;2024-03-08T10:29:47;26.47;;;14.37;;
7203;SDS011;3643;52.460;13.322;2024-03-08T10:32:18;20.17;;;12.57;;
7203;SDS011;3643;52.460;13.322;2024-03-08T10:34:46;20.40;;;12.03;;
7203;SDS011;3643;52.460;13.322;2024-03-08T10:37:16;18.33;;;11.37;;
7203;SDS011;3643;52.460;13.322;2024-03-08T10:39:52;19.60;;;11.20;;
7203;SDS011;3643;52.460;13.322;2024-03-08T10:42:38;21.03;;;11.67;;
7203;SDS011;3643;52.460;13.322;2024-03-08T10:45:11;17.60;;;11.40;;
7203;SDS011;3643;52.460;13.322;2024-03-08T10:47:42;21.67;;;11.47;;
7203;SDS011;3643;52.460;13.322;2024-03-08T10:50:17;17.87;;;10.27;;
7203;SDS011;3643;52.460;13.322;2024-03-08T10:52:48;18.93;;;10.27;;
7203;SDS011;3643;52.460;13.322;2024-03-08T10:55:18;18.67;;;11.13;;
7203;SDS011;3643;52.460;13.322;2024-03-08T10:57:47;22.53;;;12.63;;
7203;SDS011;3643;52.460;13.322;2024-03-08T11:00:17;21.67;;;12.10;;
7203;SDS011;3643;52.460;13.322;2024-03-08T11:02:53;21.80;;;12.47;;
7203;SDS011;3643;52.460;13.322;2024-03-08T11:05:31;21.53;;;12.33;;
7203;SDS011;3643;52.460;13.322;2024-03-08T11:08:01;21.07;;;11.63;;
7203;SDS011;3643;52.460;13.322;2024-03-08T11:10:31;19.40;;;11.70;;
7203;SDS011;3643;52.460;13.322;2024-03-08T11:12:59;21.60;;;12.90;;
7203;SDS011;3643;52.460;13.322;2024-03-08T11:15:29;26.27;;;12.87;;
7203;SDS011;3643;52.460;13.322;2024-03-08T11:17:58;20.97;;;12.40;;
7203;SDS011;3643;52.460;13.322;2024-03-08T11:20:27;20.80;;;12.40;;
7203;SDS011;3643;52.460;13.322;2024-03-08T11:23:00;24.23;;;11.90;;
7203;SDS011;3643;52.460;13.322;2024-03-08T11:25:31;17.57;;;10.37;;
7203;SDS011;3643;52.460;13.322;2024-03-08T11:28:06;18.97;;;11.60;;
7203;SDS011;3643;52.460;13.322;2024-03-08T11:30:37;22.60;;;10.97;;
7203;SDS011;3643;52.460;13.322;2024-03-08T11:33:06;18.43;;;11.37;;
7203;SDS011;3643;52.460;13.322;2024-03-08T11:35:40;18.67;;;11.80;;
7203;SDS011;3643;52.460;13.322;2024-03-08T11:38:12;19.30;;;11.43;;
7203;SDS011;3643;52.460;13.322;2024-03-08T11:40:43;17.67;;;10.17;;
7203;SDS011;3643;52.460;13.322;2024-03-08T11:43:16;18.27;;;10.90;;
7203;SDS011;3643;52.460;13.322;2024-03-08T11:45:47;19.47;;;11.77;;
7203;SDS011;3643;52.460;13.322;2024-03-08T11:48:14;22.33;;;12.83;;
7203;SDS011;3643;52.460;13.322;2024-03-08T11:50:43;22.33;;;12.70;;
7203;SDS011;3643;52.460;13.322;2024-03-08T11:53:11;31.10;;;17.63;;
7203;SDS011;3643;52.460;13.322;2024-03-08T11:55:40;20.13;;;12.23;;
7203;SDS011;3643;52.460;13.322;2024-03-08T11:58:09;20.50;;;12.57;;
7203;SDS011;3643;52.460;13.322;2024-03-08T12:00:39;19.57;;;11.47;;
7203;SDS011;3643;52.460;13.322;2024-03-08T12:03:08;23.00;;;13.87;;
7203;SDS011;3643;52.460;13.322;2024-03-08T12:05:37;22.80;;;12.67;;
7203;SDS011;3643;52.460;13.322;2024-03-08T12:08:05;19.20;;;11.20;;
7203;SDS011;3643;52.460;13.322;2024-03-08T12:10:35;21.40;;;12.30;;
7203;SDS011;3643;52.460;13.322;2024-03-08T12:13:03;18.33;;;11.63;;
7203;SDS011;3643;52.460;13.322;2024-03-08T12:15:39;17.37;;;11.13;;
7203;SDS011;3643;52.460;13.322;2024-03-08T12:18:09;18.63;;;11.67;;
7203;SDS011;3643;52.460;13.322;2024-03-08T12:23:13;20.03;;;11.03;;
7203;SDS011;3643;52.460;13.322;2024-03-08T12:25:42;15.40;;;10.03;;
7203;SDS011;3643;52.460;13.322;2024-03-08T12:28:11;15.17;;;10.20;;
7203;SDS011;3643;52.460;13.322;2024-03-08T12:30:48;16.87;;;10.13;;
7203;SDS011;3643;52.460;13.322;2024-03-08T12:33:20;19.20;;;11.20;;
7203;SDS011;3643;52.460;13.322;2024-03-08T12:35:52;17.23;;;10.20;;
7203;SDS011;3643;52.460;13.322;2024-03-08T12:38:22;14.20;;;9.20;;
7203;SDS011;3643;52.460;13.322;2024-03-08T12:40:54;15.23;;;9.63;;
7203;SDS011;3643;52.460;13.322;2024-03-08T12:43:23;18.20;;;10.37;;
7203;SDS011;3643;52.460;13.322;2024-03-08T12:45:51;17.97;;;10.30;;
7203;SDS011;3643;52.460;13.322;2024-03-08T12:48:22;17.03;;;9.70;;
7203;SDS011;3643;52.460;13.322;2024-03-08T12:50:51;17.13;;;9.83;;
7203;SDS011;3643;52.460;13.322;2024-03-08T12:53:21;16.80;;;10.80;;
7203;SDS011;3643;52.460;13.322;2024-03-08T12:55:52;16.70;;;10.27;;
7203;SDS011;3643;52.460;13.322;2024-03-08T12:58:19;16.33;;;10.43;;
7203;SDS011;3643;52.460;13.322;2024-03-08T13:00:47;17.90;;;10.73;;
7203;SDS011;3643;52.460;13.322;2024-03-08T13:03:19;21.67;;;10.87;;
7203;SDS011;3643;52.460;13.322;2024-03-08T13:05:50;19.40;;;11.53;;
7203;SDS011;3643;52.460;13.322;2024-03-08T13:08:19;18.83;;;10.77;;
7203;SDS011;3643;52.460;13.322;2024-03-08T13:10:48;18.33;;;11.20;;
7203;SDS011;3643;52.460;13.322;2024-03-08T13:13:17;18.30;;;10.80;;
7203;SDS011;3643;52.460;13.322;2024-03-08T13:15:45;20.23;;;11.43;;
7203;SDS011;3643;52.460;13.322;2024-03-08T13:18:15;20.83;;;11.53;;
7203;SDS011;3643;52.460;13.322;2024-03-08T13:20:44;21.47;;;12.10;;
7203;SDS011;3643;52.460;13.322;2024-03-08T13:23:17;21.13;;;11.80;;
7203;SDS011;3643;52.460;13.322;2024-03-08T13:25:45;20.80;;;12.73;;
7203;SDS011;3643;52.460;13.322;2024-03-08T13:28:14;21.47;;;12.57;;
7203;SDS011;3643;52.460;13.322;2024-03-08T13:30:42;20.30;;;12.43;;
7203;SDS011;3643;52.460;13.322;2024-03-08T13:33:11;18.33;;;11.63;;
7203;SDS011;3643;52.460;13.322;2024-03-08T13:35:41;19.27;;;12.17;;
7203;SDS011;3643;52.460;13.322;2024-03-08T13:38:09;17.10;;;11.00;;
7203;SDS011;3643;52.460;13.322;2024-03-08T13:40:41;20.30;;;12.03;;
7203;SDS011;3643;52.460;13.322;2024-03-08T13:43:10;17.87;;;12.10;;
7203;SDS011;3643;52.460;13.322;2024-03-08T13:45:39;17.97;;;11.20;;
7203;SDS011;3643;52.460;13.322;2024-03-08T13:48:07;19.80;;;12.10;;
7203;SDS011;3643;52.460;13.322;2024-03-08T13:50:39;19.73;;;11.53;;
7203;SDS011;3643;52.460;13.322;2024-03-08T13:53:07;18.77;;;11.37;;
7203;SDS011;3643;52.460;13.322;2024-03-08T13:55:36;18.27;;;11.57;;
7203;SDS011;3643;52.460;13.322;2024-03-08T13:58:06;18.47;;;11.40;;
7203;SDS011;3643;52.460;13.322;2024-03-08T14:00:36;23.03;;;12.40;;
7203;SDS011;3643;52.460;13.322;2024-03-08T14:03:04;25.67;;;12.43;;
7203;SDS011;3643;52.460;13.322;2024-03-08T14:05:33;20.83;;;12.50;;
7203;SDS011;3643;52.460;13.322;2024-03-08T14:08:01;17.93;;;11.73;;
7203;SDS011;3643;52.460;13.322;2024-03-08T14:10:30;17.47;;;11.40;;
7203;SDS011;3643;52.460;13.322;2024-03-08T14:12:58;17.60;;;10.77;;
7203;SDS011;3643;52.460;13.322;2024-03-08T14:15:28;16.87;;;10.50;;
7203;SDS011;3643;52.460;13.322;2024-03-08T14:17:57;19.10;;;10.63;;
7203;SDS011;3643;52.460;13.322;2024-03-08T14:20:26;16.93;;;10.47;;
7203;SDS011;3643;52.460;13.322;2024-03-08T14:22:54;19.17;;;11.23;;
7203;SDS011;3643;52.460;13.322;2024-03-08T14:25:23;15.63;;;9.83;;
7203;SDS011;3643;52.460;13.322;2024-03-08T14:27:52;16.00;;;9.70;;
7203;SDS011;3643;52.460;13.322;2024-03-08T14:30:25;17.23;;;10.53;;
7203;SDS011;3643;52.460;13.322;2024-03-08T14:33:06;15.47;;;10.40;;
7203;SDS011;3643;52.460;13.322;2024-03-08T14:35:36;15.77;;;9.83;;
7203;SDS011;3643;52.460;13.322;2024-03-08T14:38:04;24.53;;;10.97;;
7203;SDS011;3643;52.460;13.322;2024-03-08T14:40:35;17.70;;;9.87;;
7203;SDS011;3643;52.460;13.322;2024-03-08T14:43:04;17.20;;;10.50;;
7203;SDS011;3643;52.460;13.322;2024-03-08T14:45:32;17.17;;;10.83;;
7203;SDS011;3643;52.460;13.322;2024-03-08T14:48:01;18.80;;;10.90;;
7203;SDS011;3643;52.460;13.322;2024-03-08T14:50:32;16.43;;;10.57;;